sensor_id;sensor_type;location;lat;lon;timestamp;pressure;altitude;pressure_sealevel;temperature;humidity
36258;BME280;22294;52.044;4.582;2022-10-26T00:02:07;76419.16;;;-144.37;100.00
36258;BME280;22294;52.044;4.582;2022-10-26T00:04:32;76419.16;;;-144.37;100.00
36258;BME280;22294;52.044;4.582;2022-10-26T00:06:57;76421.19;;;-144.37;100.00
36258;BME280;22294;52.044;4.582;2022-10-26T00:09:23;76419.16;;;-144.37;100.00
36258;BME280;22294;52.044;4.582;2022-10-26T00:11:48;76419.16;;;-144.37;100.00
36258;BME280;22294;52.044;4.582;2022-10-26T00:14:13;76415.06;;;-144.37;100.00
36258;BME280;22294;52.044;4.582;2022-10-26T00:16:38;76415.06;;;-144.37;100.00
36258;BME280;22294;52.044;4.582;2022-10-26T00:19:04;76413.03;;;-144.37;100.00
36258;BME280;22294;52.044;4.582;2022-10-26T00:21:29;76408.94;;;-144.37;100.00
36258;BME280;22294;52.044;4.582;2022-10-26T00:23:54;76413.03;;;-144.37;100.00
36258;BME280;22294;52.044;4.582;2022-10-26T00:26:19;76417.09;;;-144.37;100.00
36258;BME280;22294;52.044;4.582;2022-10-26T00:28:45;76419.16;;;-144.37;100.00
36258;BME280;22294;52.044;4.582;2022-10-26T00:31:12;76417.09;;;-144.37;100.00
36258;BME280;22294;52.044;4.582;2022-10-26T00:33:38;76419.16;;;-144.37;100.00
36258;BME280;22294;52.044;4.582;2022-10-26T00:36:03;76410.97;;;-144.37;100.00
36258;BME280;22294;52.044;4.582;2022-10-26T00:38:30;76415.06;;;-144.37;100.00
36258;BME280;22294;52.044;4.582;2022-10-26T00:40:55;76408.94;;;-144.37;100.00
36258;BME280;22294;52.044;4.582;2022-10-26T00:45:46;76408.94;;;-144.37;100.00
36258;BME280;22294;52.044;4.582;2022-10-26T00:48:20;76406.88;;;-144.37;100.00
36258;BME280;22294;52.044;4.582;2022-10-26T00:50:47;76410.97;;;-144.37;100.00
36258;BME280;22294;52.044;4.582;2022-10-26T00:53:13;76410.97;;;-144.37;100.00
36258;BME280;22294;52.044;4.582;2022-10-26T00:55:43;76410.97;;;-144.37;100.00
36258;BME280;22294;52.044;4.582;2022-10-26T00:58:10;76408.94;;;-144.37;100.00
36258;BME280;22294;52.044;4.582;2022-10-26T01:00:36;76402.78;;;-144.37;100.00
36258;BME280;22294;52.044;4.582;2022-10-26T01:03:07;76400.75;;;-144.37;100.00
36258;BME280;22294;52.044;4.582;2022-10-26T01:05:34;76398.69;;;-144.37;100.00
36258;BME280;22294;52.044;4.582;2022-10-26T01:08:01;76392.56;;;-144.37;100.00
36258;BME280;22294;52.044;4.582;2022-10-26T01:10:27;76386.44;;;-144.37;100.00
36258;BME280;22294;52.044;4.582;2022-10-26T01:12:54;76388.47;;;-144.37;100.00
36258;BME280;22294;52.044;4.582;2022-10-26T01:15:30;76382.34;;;-144.37;100.00
36258;BME280;22294;52.044;4.582;2022-10-26T01:18:12;76390.53;;;-144.37;100.00
36258;BME280;22294;52.044;4.582;2022-10-26T01:21:08;76380.28;;;-144.37;100.00
36258;BME280;22294;52.044;4.582;2022-10-26T01:32:13;76378.25;;;-144.37;100.00
36258;BME280;22294;52.044;4.582;2022-10-26T01:34:46;76382.34;;;-144.37;100.00
36258;BME280;22294;52.044;4.582;2022-10-26T01:37:23;76372.13;;;-144.37;100.00
36258;BME280;22294;52.044;4.582;2022-10-26T01:39:58;76357.78;;;-144.37;100.00
36258;BME280;22294;52.044;4.582;2022-10-26T01:42:26;76361.88;;;-144.37;100.00
36258;BME280;22294;52.044;4.582;2022-10-26T01:44:59;76359.84;;;-144.37;100.00
36258;BME280;22294;52.044;4.582;2022-10-26T01:47:29;76368.03;;;-144.37;100.00
36258;BME280;22294;52.044;4.582;2022-10-26T01:49:57;76365.97;;;-144.37;100.00
36258;BME280;22294;52.044;4.582;2022-10-26T01:52:23;76365.97;;;-144.37;100.00
36258;BME280;22294;52.044;4.582;2022-10-26T01:54:49;76368.03;;;-144.37;100.00
36258;BME280;22294;52.044;4.582;2022-10-26T01:57:17;76347.56;;;-144.37;100.00
36258;BME280;22294;52.044;4.582;2022-10-26T02:00:03;76335.31;;;-144.37;100.00
36258;BME280;22294;52.044;4.582;2022-10-26T02:02:44;76331.22;;;-144.37;100.00
36258;BME280;22294;52.044;4.582;2022-10-26T02:05:25;76318.94;;;-144.37;100.00
36258;BME280;22294;52.044;4.582;2022-10-26T02:13:12;76316.88;;;-144.37;100.00
36258;BME280;22294;52.044;4.582;2022-10-26T02:21:20;76325.06;;;-144.37;100.00
36258;BME280;22294;52.044;4.582;2022-10-26T02:23:47;76314.84;;;-144.37;100.00
36258;BME280;22294;52.044;4.582;2022-10-26T02:26:15;76314.84;;;-144.37;100.00
36258;BME280;22294;52.044;4.582;2022-10-26T02:28:48;76318.94;;;-144.37;100.00
36258;BME280;22294;52.044;4.582;2022-10-26T02:31:15;76314.84;;;-144.37;100.00
36258;BME280;22294;52.044;4.582;2022-10-26T02:33:46;76310.75;;;-144.37;100.00
36258;BME280;22294;52.044;4.582;2022-10-26T02:36:16;76314.84;;;-144.37;100.00
36258;BME280;22294;52.044;4.582;2022-10-26T02:38:44;76314.84;;;-144.37;100.00
36258;BME280;22294;52.044;4.582;2022-10-26T02:41:11;76310.75;;;-144.37;100.00
36258;BME280;22294;52.044;4.582;2022-10-26T02:43:43;76316.88;;;-144.37;100.00
36258;BME280;22294;52.044;4.582;2022-10-26T02:46:12;76316.88;;;-144.37;100.00
36258;BME280;22294;52.044;4.582;2022-10-26T02:48:39;76320.97;;;-144.37;100.00
36258;BME280;22294;52.044;4.582;2022-10-26T02:51:20;76318.94;;;-144.37;100.00
36258;BME280;22294;52.044;4.582;2022-10-26T02:53:53;76331.22;;;-144.37;100.00
36258;BME280;22294;52.044;4.582;2022-10-26T02:57:28;76323.03;;;-144.37;100.00
36258;BME280;22294;52.044;4.582;2022-10-26T02:59:36;76323.03;;;-144.37;100.00
36258;BME280;22294;52.044;4.582;2022-10-26T03:02:04;76316.88;;;-144.37;100.00
36258;BME280;22294;52.044;4.582;2022-10-26T03:04:31;76312.81;;;-144.37;100.00
36258;BME280;22294;52.044;4.582;2022-10-26T03:06:57;76316.88;;;-144.37;100.00
36258;BME280;22294;52.044;4.582;2022-10-26T03:09:23;76308.72;;;-144.37;100.00
36258;BME280;22294;52.044;4.582;2022-10-26T03:11:48;76310.75;;;-144.37;100.00
36258;BME280;22294;52.044;4.582;2022-10-26T03:14:14;76308.72;;;-144.37;100.00
36258;BME280;22294;52.044;4.582;2022-10-26T03:16:39;76304.63;;;-144.37;100.00
36258;BME280;22294;52.044;4.582;2022-10-26T03:19:04;76312.81;;;-144.37;100.00
36258;BME280;22294;52.044;4.582;2022-10-26T03:21:29;76310.75;;;-144.37;100.00
36258;BME280;22294;52.044;4.582;2022-10-26T03:23:55;76306.66;;;-144.37;100.00
36258;BME280;22294;52.044;4.582;2022-10-26T03:26:20;76314.84;;;-144.37;100.00
36258;BME280;22294;52.044;4.582;2022-10-26T03:28:45;76310.75;;;-144.37;100.00
36258;BME280;22294;52.044;4.582;2022-10-26T03:31:11;76320.97;;;-144.37;100.00
36258;BME280;22294;52.044;4.582;2022-10-26T03:33:36;76318.94;;;-144.37;100.00
36258;BME280;22294;52.044;4.582;2022-10-26T03:36:01;76312.81;;;-144.37;100.00
36258;BME280;22294;52.044;4.582;2022-10-26T03:38:27;76308.72;;;-144.37;100.00
36258;BME280;22294;52.044;4.582;2022-10-26T03:40:52;76310.75;;;-144.37;100.00
36258;BME280;22294;52.044;4.582;2022-10-26T03:43:17;76306.66;;;-144.37;100.00
36258;BME280;22294;52.044;4.582;2022-10-26T03:45:43;76300.53;;;-144.37;100.00
36258;BME280;22294;52.044;4.582;2022-10-26T03:48:08;76298.47;;;-144.37;100.00
36258;BME280;22294;52.044;4.582;2022-10-26T03:50:33;76290.31;;;-144.37;100.00
36258;BME280;22294;52.044;4.582;2022-10-26T03:52:59;76290.31;;;-144.37;100.00
36258;BME280;22294;52.044;4.582;2022-10-26T03:55:24;76292.34;;;-144.37;100.00
36258;BME280;22294;52.044;4.582;2022-10-26T03:57:49;76292.34;;;-144.37;100.00
36258;BME280;22294;52.044;4.582;2022-10-26T04:00:16;76284.16;;;-144.37;100.00
36258;BME280;22294;52.044;4.582;2022-10-26T04:02:43;76286.22;;;-144.37;100.00
36258;BME280;22294;52.044;4.582;2022-10-26T04:05:11;76290.31;;;-144.37;100.00
36258;BME280;22294;52.044;4.582;2022-10-26T04:07:36;76288.25;;;-144.37;100.00
36258;BME280;22294;52.044;4.582;2022-10-26T04:10:03;76284.16;;;-144.37;100.00
36258;BME280;22294;52.044;4.582;2022-10-26T04:12:28;76284.16;;;-144.37;100.00
36258;BME280;22294;52.044;4.582;2022-10-26T04:14:53;76280.06;;;-144.37;100.00
36258;BME280;22294;52.044;4.582;2022-10-26T04:17:21;76282.13;;;-144.37;100.00
36258;BME280;22294;52.044;4.582;2022-10-26T04:19:47;76278.03;;;-144.37;100.00
36258;BME280;22294;52.044;4.582;2022-10-26T04:22:12;76276.00;;;-144.37;100.00
36258;BME280;22294;52.044;4.582;2022-10-26T04:24:37;76280.06;;;-144.37;100.00
36258;BME280;22294;52.044;4.582;2022-10-26T04:27:02;76278.03;;;-144.37;100.00
36258;BME280;22294;52.044;4.582;2022-10-26T04:29:28;76282.13;;;-144.37;100.00
36258;BME280;22294;52.044;4.582;2022-10-26T04:31:53;76276.00;;;-144.37;100.00
36258;BME280;22294;52.044;4.582;2022-10-26T04:34:18;76278.03;;;-144.37;100.00
36258;BME280;22294;52.044;4.582;2022-10-26T04:36:43;76276.00;;;-144.37;100.00
36258;BME280;22294;52.044;4.582;2022-10-26T04:39:09;76273.94;;;-144.37;100.00
36258;BME280;22294;52.044;4.582;2022-10-26T04:41:34;76276.00;;;-144.37;100.00
36258;BME280;22294;52.044;4.582;2022-10-26T04:43:59;76269.84;;;-144.37;100.00
36258;BME280;22294;52.044;4.582;2022-10-26T04:46:24;76280.06;;;-144.37;100.00
36258;BME280;22294;52.044;4.582;2022-10-26T04:48:50;76286.22;;;-144.37;100.00
36258;BME280;22294;52.044;4.582;2022-10-26T04:51:15;76280.06;;;-144.37;100.00
36258;BME280;22294;52.044;4.582;2022-10-26T04:53:41;76284.16;;;-144.37;100.00
36258;BME280;22294;52.044;4.582;2022-10-26T04:56:07;76280.06;;;-144.37;100.00
36258;BME280;22294;52.044;4.582;2022-10-26T04:58:32;76284.16;;;-144.37;100.00
36258;BME280;22294;52.044;4.582;2022-10-26T05:01:00;76282.13;;;-144.37;100.00
36258;BME280;22294;52.044;4.582;2022-10-26T05:03:26;76280.06;;;-144.37;100.00
36258;BME280;22294;52.044;4.582;2022-10-26T05:05:51;76273.94;;;-144.37;100.00
36258;BME280;22294;52.044;4.582;2022-10-26T05:08:17;76278.03;;;-144.37;100.00
36258;BME280;22294;52.044;4.582;2022-10-26T05:10:42;76278.03;;;-144.37;100.00
36258;BME280;22294;52.044;4.582;2022-10-26T05:13:08;76276.00;;;-144.37;100.00
36258;BME280;22294;52.044;4.582;2022-10-26T05:15:33;76269.84;;;-144.37;100.00
36258;BME280;22294;52.044;4.582;2022-10-26T05:18:00;76263.72;;;-144.37;100.00
36258;BME280;22294;52.044;4.582;2022-10-26T05:20:28;76263.72;;;-144.37;100.00
36258;BME280;22294;52.044;4.582;2022-10-26T05:22:56;76259.63;;;-144.37;100.00
36258;BME280;22294;52.044;4.582;2022-10-26T05:25:22;76255.53;;;-144.37;100.00
36258;BME280;22294;52.044;4.582;2022-10-26T05:27:48;76251.44;;;-144.37;100.00
36258;BME280;22294;52.044;4.582;2022-10-26T05:30:13;76255.53;;;-144.37;100.00
36258;BME280;22294;52.044;4.582;2022-10-26T05:32:38;76259.63;;;-144.37;100.00
36258;BME280;22294;52.044;4.582;2022-10-26T05:35:04;76251.44;;;-144.37;100.00
36258;BME280;22294;52.044;4.582;2022-10-26T05:37:30;76249.41;;;-144.37;100.00
36258;BME280;22294;52.044;4.582;2022-10-26T05:39:55;76249.41;;;-144.37;100.00
36258;BME280;22294;52.044;4.582;2022-10-26T05:42:20;76241.22;;;-144.37;100.00
36258;BME280;22294;52.044;4.582;2022-10-26T05:44:46;76243.25;;;-144.37;100.00
36258;BME280;22294;52.044;4.582;2022-10-26T05:47:11;76239.16;;;-144.37;100.00
36258;BME280;22294;52.044;4.582;2022-10-26T05:49:36;76233.03;;;-144.37;100.00
36258;BME280;22294;52.044;4.582;2022-10-26T05:52:02;76231.00;;;-144.37;100.00
36258;BME280;22294;52.044;4.582;2022-10-26T05:54:27;76231.00;;;-144.37;100.00
36258;BME280;22294;52.044;4.582;2022-10-26T05:56:53;76235.09;;;-144.37;100.00
36258;BME280;22294;52.044;4.582;2022-10-26T05:59:18;76233.03;;;-144.37;100.00
36258;BME280;22294;52.044;4.582;2022-10-26T06:02:03;76228.94;;;-144.37;100.00
36258;BME280;22294;52.044;4.582;2022-10-26T06:04:41;76224.84;;;-144.37;100.00
36258;BME280;22294;52.044;4.582;2022-10-26T06:07:12;76228.94;;;-144.37;100.00
36258;BME280;22294;52.044;4.582;2022-10-26T06:09:39;76226.91;;;-144.37;100.00
36258;BME280;22294;52.044;4.582;2022-10-26T06:12:05;76235.09;;;-144.37;100.00
36258;BME280;22294;52.044;4.582;2022-10-26T06:14:32;76237.13;;;-144.37;100.00
36258;BME280;22294;52.044;4.582;2022-10-26T06:19:57;76245.31;;;-144.37;100.00
36258;BME280;22294;52.044;4.582;2022-10-26T06:22:51;76239.16;;;-144.37;100.00
36258;BME280;22294;52.044;4.582;2022-10-26T06:30:45;76245.31;;;-144.37;100.00
36258;BME280;22294;52.044;4.582;2022-10-26T06:33:12;76243.25;;;-144.37;100.00
36258;BME280;22294;52.044;4.582;2022-10-26T06:38:08;76251.44;;;-144.37;100.00
36258;BME280;22294;52.044;4.582;2022-10-26T06:40:37;76251.44;;;-144.37;100.00
36258;BME280;22294;52.044;4.582;2022-10-26T06:43:09;76249.41;;;-144.37;100.00
36258;BME280;22294;52.044;4.582;2022-10-26T06:45:37;76251.44;;;-144.37;100.00
36258;BME280;22294;52.044;4.582;2022-10-26T06:48:07;76251.44;;;-144.37;100.00
36258;BME280;22294;52.044;4.582;2022-10-26T06:50:47;76257.59;;;-144.37;100.00
36258;BME280;22294;52.044;4.582;2022-10-26T06:53:22;76261.66;;;-144.37;100.00
36258;BME280;22294;52.044;4.582;2022-10-26T06:55:50;76259.63;;;-144.37;100.00
36258;BME280;22294;52.044;4.582;2022-10-26T06:58:18;76271.91;;;-144.37;100.00
36258;BME280;22294;52.044;4.582;2022-10-26T07:00:45;76263.72;;;-144.37;100.00
36258;BME280;22294;52.044;4.582;2022-10-26T07:03:11;76267.81;;;-144.37;100.00
36258;BME280;22294;52.044;4.582;2022-10-26T07:05:37;76263.72;;;-144.37;100.00
36258;BME280;22294;52.044;4.582;2022-10-26T07:08:03;76269.84;;;-144.37;100.00
36258;BME280;22294;52.044;4.582;2022-10-26T07:10:29;76263.72;;;-144.37;100.00
36258;BME280;22294;52.044;4.582;2022-10-26T07:12:54;76255.53;;;-144.37;100.00
36258;BME280;22294;52.044;4.582;2022-10-26T07:15:20;76259.63;;;-144.37;100.00
36258;BME280;22294;52.044;4.582;2022-10-26T07:17:47;76265.75;;;-144.37;100.00
36258;BME280;22294;52.044;4.582;2022-10-26T07:20:14;76271.91;;;-144.37;100.00
36258;BME280;22294;52.044;4.582;2022-10-26T07:22:39;76271.91;;;-144.37;100.00
36258;BME280;22294;52.044;4.582;2022-10-26T07:25:07;76271.91;;;-144.37;100.00
36258;BME280;22294;52.044;4.582;2022-10-26T07:27:32;76257.59;;;-144.37;100.00
36258;BME280;22294;52.044;4.582;2022-10-26T07:29:58;76259.63;;;-144.37;100.00
36258;BME280;22294;52.044;4.582;2022-10-26T07:32:23;76257.59;;;-144.37;100.00
36258;BME280;22294;52.044;4.582;2022-10-26T07:34:48;76253.50;;;-144.37;100.00
36258;BME280;22294;52.044;4.582;2022-10-26T07:37:14;76251.44;;;-144.37;100.00
36258;BME280;22294;52.044;4.582;2022-10-26T07:39:39;76253.50;;;-144.37;100.00
36258;BME280;22294;52.044;4.582;2022-10-26T07:42:04;76247.34;;;-144.37;100.00
36258;BME280;22294;52.044;4.582;2022-10-26T07:44:30;76239.16;;;-144.37;100.00
36258;BME280;22294;52.044;4.582;2022-10-26T07:46:55;76233.03;;;-144.37;100.00
36258;BME280;22294;52.044;4.582;2022-10-26T07:49:21;76228.94;;;-144.37;100.00
36258;BME280;22294;52.044;4.582;2022-10-26T07:51:46;76228.94;;;-144.37;100.00
36258;BME280;22294;52.044;4.582;2022-10-26T07:54:11;76235.09;;;-144.37;100.00
36258;BME280;22294;52.044;4.582;2022-10-26T07:56:37;76228.94;;;-144.37;100.00
36258;BME280;22294;52.044;4.582;2022-10-26T07:59:02;76220.75;;;-144.37;100.00
36258;BME280;22294;52.044;4.582;2022-10-26T08:01:27;76208.50;;;-144.37;100.00
36258;BME280;22294;52.044;4.582;2022-10-26T08:03:53;76196.22;;;-144.37;100.00
36258;BME280;22294;52.044;4.582;2022-10-26T08:06:20;76186.00;;;-144.37;100.00
36258;BME280;22294;52.044;4.582;2022-10-26T08:08:45;76171.69;;;-144.37;100.00
36258;BME280;22294;52.044;4.582;2022-10-26T08:11:11;76151.22;;;-144.37;100.00
36258;BME280;22294;52.044;4.582;2022-10-26T08:13:36;76136.91;;;-144.37;100.00
36258;BME280;22294;52.044;4.582;2022-10-26T08:16:03;76124.66;;;-144.37;100.00
36258;BME280;22294;52.044;4.582;2022-10-26T08:18:29;76106.25;;;-144.37;100.00
36258;BME280;22294;52.044;4.582;2022-10-26T08:21:03;76091.91;;;-144.37;100.00
36258;BME280;22294;52.044;4.582;2022-10-26T08:23:29;76081.69;;;-144.37;100.00
36258;BME280;22294;52.044;4.582;2022-10-26T08:25:59;76075.56;;;-144.37;100.00
36258;BME280;22294;52.044;4.582;2022-10-26T08:28:25;76063.28;;;-144.37;100.00
36258;BME280;22294;52.044;4.582;2022-10-26T08:30:50;76042.84;;;-144.37;100.00
36258;BME280;22294;52.044;4.582;2022-10-26T08:33:15;76038.75;;;-144.37;100.00
36258;BME280;22294;52.044;4.582;2022-10-26T08:35:40;76038.75;;;-144.37;100.00
36258;BME280;22294;52.044;4.582;2022-10-26T08:38:07;76026.47;;;-144.37;100.00
36258;BME280;22294;52.044;4.582;2022-10-26T08:40:36;76024.44;;;-144.37;100.00
36258;BME280;22294;52.044;4.582;2022-10-26T08:43:28;76018.31;;;-144.37;100.00
36258;BME280;22294;52.044;4.582;2022-10-26T08:46:03;76016.25;;;-144.37;100.00
36258;BME280;22294;52.044;4.582;2022-10-26T08:48:36;76008.06;;;-144.37;100.00
36258;BME280;22294;52.044;4.582;2022-10-26T08:51:09;75999.91;;;-144.37;100.00
36258;BME280;22294;52.044;4.582;2022-10-26T08:53:42;75993.75;;;-144.37;100.00
36258;BME280;22294;52.044;4.582;2022-10-26T08:56:19;75977.41;;;-144.37;100.00
36258;BME280;22294;52.044;4.582;2022-10-26T08:59:08;75969.22;;;-144.37;100.00
36258;BME280;22294;52.044;4.582;2022-10-26T09:01:36;75975.34;;;-144.37;100.00
36258;BME280;22294;52.044;4.582;2022-10-26T09:04:02;75969.22;;;-144.37;100.00
36258;BME280;22294;52.044;4.582;2022-10-26T09:06:54;75967.16;;;-144.37;100.00
36258;BME280;22294;52.044;4.582;2022-10-26T09:09:42;75965.13;;;-144.37;100.00
36258;BME280;22294;52.044;4.582;2022-10-26T09:12:16;75954.91;;;-144.37;100.00
36258;BME280;22294;52.044;4.582;2022-10-26T09:21:11;75944.69;;;-144.37;100.00
36258;BME280;22294;52.044;4.582;2022-10-26T09:23:58;75936.50;;;-144.37;100.00
36258;BME280;22294;52.044;4.582;2022-10-26T09:26:31;75932.41;;;-144.37;100.00
36258;BME280;22294;52.044;4.582;2022-10-26T09:29:03;75928.31;;;-144.37;100.00
36258;BME280;22294;52.044;4.582;2022-10-26T09:31:33;75916.03;;;-144.37;100.00
36258;BME280;22294;52.044;4.582;2022-10-26T09:34:03;75903.78;;;-144.37;100.00
36258;BME280;22294;52.044;4.582;2022-10-26T09:36:29;75895.59;;;-144.37;100.00
36258;BME280;22294;52.044;4.582;2022-10-26T09:41:30;75885.38;;;-144.37;100.00
36258;BME280;22294;52.044;4.582;2022-10-26T09:44:03;75879.22;;;-144.37;100.00
36258;BME280;22294;52.044;4.582;2022-10-26T09:46:33;75866.97;;;-144.37;100.00
36258;BME280;22294;52.044;4.582;2022-10-26T09:49:05;75866.97;;;-144.37;100.00
36258;BME280;22294;52.044;4.582;2022-10-26T09:51:34;75866.97;;;-144.37;100.00
36258;BME280;22294;52.044;4.582;2022-10-26T09:54:00;75862.88;;;-144.37;100.00
36258;BME280;22294;52.044;4.582;2022-10-26T09:56:27;75862.88;;;-144.37;100.00
36258;BME280;22294;52.044;4.582;2022-10-26T09:58:56;75862.88;;;-144.37;100.00
36258;BME280;22294;52.044;4.582;2022-10-26T10:06:38;75862.88;;;-144.37;100.00
36258;BME280;22294;52.044;4.582;2022-10-26T10:09:11;75856.75;;;-144.37;100.00
36258;BME280;22294;52.044;4.582;2022-10-26T10:11:43;75852.66;;;-144.37;100.00
36258;BME280;22294;52.044;4.582;2022-10-26T10:14:14;75856.75;;;-144.37;100.00
36258;BME280;22294;52.044;4.582;2022-10-26T10:16:41;75856.75;;;-144.37;100.00
36258;BME280;22294;52.044;4.582;2022-10-26T10:19:21;75862.88;;;-144.37;100.00
36258;BME280;22294;52.044;4.582;2022-10-26T10:21:49;75875.16;;;-144.37;100.00
36258;BME280;22294;52.044;4.582;2022-10-26T10:24:22;75873.09;;;-144.37;100.00
36258;BME280;22294;52.044;4.582;2022-10-26T10:32:18;75889.47;;;-144.37;100.00
36258;BME280;22294;52.044;4.582;2022-10-26T10:34:50;75897.63;;;-144.37;100.00
36258;BME280;22294;52.044;4.582;2022-10-26T10:37:36;75901.72;;;-144.37;100.00
36258;BME280;22294;52.044;4.582;2022-10-26T10:40:06;75893.56;;;-144.37;100.00
36258;BME280;22294;52.044;4.582;2022-10-26T10:42:34;75903.78;;;-144.37;100.00
36258;BME280;22294;52.044;4.582;2022-10-26T10:45:02;75901.72;;;-144.37;100.00
36258;BME280;22294;52.044;4.582;2022-10-26T10:47:31;75895.59;;;-144.37;100.00
36258;BME280;22294;52.044;4.582;2022-10-26T10:50:01;75897.63;;;-144.37;100.00
36258;BME280;22294;52.044;4.582;2022-10-26T10:52:30;75893.56;;;-144.37;100.00
36258;BME280;22294;52.044;4.582;2022-10-26T10:55:14;75883.31;;;-144.37;100.00
36258;BME280;22294;52.044;4.582;2022-10-26T11:00:22;75871.06;;;-144.37;100.00
36258;BME280;22294;52.044;4.582;2022-10-26T11:11:26;75832.19;;;-144.37;100.00
36258;BME280;22294;52.044;4.582;2022-10-26T11:14:19;75834.25;;;-144.37;100.00
36258;BME280;22294;52.044;4.582;2022-10-26T11:19:41;75821.97;;;-144.37;100.00
36258;BME280;22294;52.044;4.582;2022-10-26T11:22:16;75824.03;;;-144.37;100.00
36258;BME280;22294;52.044;4.582;2022-10-26T11:24:48;75824.03;;;-144.37;100.00
36258;BME280;22294;52.044;4.582;2022-10-26T11:27:33;75824.03;;;-144.37;99.71
36258;BME280;22294;52.044;4.582;2022-10-26T11:30:36;75832.19;;;-144.37;98.97
36258;BME280;22294;52.044;4.582;2022-10-26T11:33:27;75826.06;;;-144.37;98.84
36258;BME280;22294;52.044;4.582;2022-10-26T11:36:18;75815.84;;;-144.37;98.07
36258;BME280;22294;52.044;4.582;2022-10-26T11:39:00;75815.84;;;-144.37;98.99
36258;BME280;22294;52.044;4.582;2022-10-26T11:41:50;75805.63;;;-144.37;99.70
36258;BME280;22294;52.044;4.582;2022-10-26T11:44:29;75793.34;;;-144.37;98.49
36258;BME280;22294;52.044;4.582;2022-10-26T11:47:02;75785.16;;;-144.37;96.23
36258;BME280;22294;52.044;4.582;2022-10-26T11:49:41;75785.16;;;-144.37;96.15
36258;BME280;22294;52.044;4.582;2022-10-26T11:52:15;75789.25;;;-144.37;96.16
36258;BME280;22294;52.044;4.582;2022-10-26T11:55:00;75789.25;;;-144.37;94.69
36258;BME280;22294;52.044;4.582;2022-10-26T11:57:29;75772.91;;;-144.37;94.91
36258;BME280;22294;52.044;4.582;2022-10-26T12:00:04;75770.84;;;-144.37;95.65
36258;BME280;22294;52.044;4.582;2022-10-26T12:02:31;75770.84;;;-144.37;94.75
36258;BME280;22294;52.044;4.582;2022-10-26T12:05:20;75762.66;;;-144.37;93.50
36258;BME280;22294;52.044;4.582;2022-10-26T12:07:52;75748.34;;;-144.37;92.73
36258;BME280;22294;52.044;4.582;2022-10-26T12:10:26;75748.34;;;-144.37;91.51
36258;BME280;22294;52.044;4.582;2022-10-26T12:12:58;75750.41;;;-144.37;91.68
36258;BME280;22294;52.044;4.582;2022-10-26T12:15:31;75754.50;;;-144.37;91.49
36258;BME280;22294;52.044;4.582;2022-10-26T12:18:30;75746.31;;;-144.37;91.99
36258;BME280;22294;52.044;4.582;2022-10-26T12:20:59;75746.31;;;-144.37;91.33
36258;BME280;22294;52.044;4.582;2022-10-26T12:23:29;75748.34;;;-144.37;91.06
36258;BME280;22294;52.044;4.582;2022-10-26T12:28:47;75752.44;;;-144.37;92.08
36258;BME280;22294;52.044;4.582;2022-10-26T12:31:40;75754.50;;;-144.37;92.09
36258;BME280;22294;52.044;4.582;2022-10-26T12:34:12;75764.72;;;-144.37;92.46
36258;BME280;22294;52.044;4.582;2022-10-26T12:39:33;75772.91;;;-144.37;91.38
36258;BME280;22294;52.044;4.582;2022-10-26T12:44:39;75766.75;;;-144.37;89.02
36258;BME280;22294;52.044;4.582;2022-10-26T12:47:07;75758.59;;;-144.37;88.40
36258;BME280;22294;52.044;4.582;2022-10-26T12:50:17;75756.53;;;-144.37;88.38
36258;BME280;22294;52.044;4.582;2022-10-26T12:53:06;75752.44;;;-144.37;90.42
36258;BME280;22294;52.044;4.582;2022-10-26T13:04:36;75734.03;;;-144.37;89.38
36258;BME280;22294;52.044;4.582;2022-10-26T13:07:16;75727.91;;;-144.37;88.23
36258;BME280;22294;52.044;4.582;2022-10-26T13:09:52;75721.78;;;-144.37;86.48
36258;BME280;22294;52.044;4.582;2022-10-26T13:12:20;75727.91;;;-144.37;86.71
36258;BME280;22294;52.044;4.582;2022-10-26T13:14:56;75723.81;;;-144.37;86.12
36258;BME280;22294;52.044;4.582;2022-10-26T13:17:26;75715.63;;;-144.37;86.02
36258;BME280;22294;52.044;4.582;2022-10-26T13:19:57;75705.41;;;-144.37;86.16
36258;BME280;22294;52.044;4.582;2022-10-26T13:22:23;75713.59;;;-144.37;86.01
36258;BME280;22294;52.044;4.582;2022-10-26T13:25:03;75719.72;;;-144.37;86.79
36258;BME280;22294;52.044;4.582;2022-10-26T13:32:39;75719.72;;;-144.37;86.53
36258;BME280;22294;52.044;4.582;2022-10-26T13:35:11;75727.91;;;-144.37;86.89
36258;BME280;22294;52.044;4.582;2022-10-26T13:37:41;75727.91;;;-144.37;86.94
36258;BME280;22294;52.044;4.582;2022-10-26T13:40:15;75729.94;;;-144.37;85.19
36258;BME280;22294;52.044;4.582;2022-10-26T13:42:45;75740.19;;;-144.37;85.05
36258;BME280;22294;52.044;4.582;2022-10-26T13:45:15;75738.13;;;-144.37;84.99
36258;BME280;22294;52.044;4.582;2022-10-26T13:50:18;75742.22;;;-144.37;86.16
36258;BME280;22294;52.044;4.582;2022-10-26T13:52:47;75734.03;;;-144.37;86.71
36258;BME280;22294;52.044;4.582;2022-10-26T13:55:25;75729.94;;;-144.37;86.26
36258;BME280;22294;52.044;4.582;2022-10-26T13:58:11;75727.91;;;-144.37;85.91
36258;BME280;22294;52.044;4.582;2022-10-26T14:00:59;75727.91;;;-144.37;86.31
36258;BME280;22294;52.044;4.582;2022-10-26T14:03:25;75727.91;;;-144.37;85.49
36258;BME280;22294;52.044;4.582;2022-10-26T14:05:50;75738.13;;;-144.37;86.08
36258;BME280;22294;52.044;4.582;2022-10-26T14:08:17;75748.34;;;-144.37;86.84
36258;BME280;22294;52.044;4.582;2022-10-26T14:10:52;75760.63;;;-144.37;86.37
36258;BME280;22294;52.044;4.582;2022-10-26T14:13:22;75768.81;;;-144.37;86.59
36258;BME280;22294;52.044;4.582;2022-10-26T14:15:50;75785.16;;;-144.37;86.71
36258;BME280;22294;52.044;4.582;2022-10-26T14:18:20;75799.47;;;-144.37;86.07
36258;BME280;22294;52.044;4.582;2022-10-26T14:20:51;75803.56;;;-144.37;85.74